Time;durP1;ratioP1;P1;durP2;ratioP2;P2;SDS_P1;SDS_P2;PMS_P1;PMS_P2;Temp;Humidity;BMP_temperature;BMP_pressure;BME280_temperature;BME280_humidity;BME280_pressure;Samples;Min_cycle;Max_cycle;Signal;HPM_P1;HPM_P2
2024/02/08 00:02:13;;;;;;;5.40;1.83;;;;;;;;;;4833961;29;20393;-81
2024/02/08 00:04:44;;;;;;;6.70;1.98;;;;;;;;;;4841189;29;20053;-81
2024/02/08 00:07:15;;;;;;;5.63;2.10;;;;;;;;;;4841981;29;20086;-80
2024/02/08 00:09:45;;;;;;;4.18;1.95;;;;;;;;;;4842861;29;20049;-80
2024/02/08 00:12:16;;;;;;;7.60;2.20;;;;;;;;;;4842649;29;20053;-80
2024/02/08 00:14:49;;;;;;;5.05;2.53;;;;;;;;;;4842928;29;20061;-81
2024/02/08 00:17:20;;;;;;;4.97;1.95;;;;;;;;;;4854507;29;20124;-81
2024/02/08 00:19:50;;;;;;;6.78;1.85;;;;;;;;;;4835948;29;20401;-81
2024/02/08 00:22:20;;;;;;;7.80;1.80;;;;;;;;;;4831845;29;20074;-80
2024/02/08 00:24:53;;;;;;;6.88;1.73;;;;;;;;;;4840407;29;20062;-79
2024/02/08 00:27:24;;;;;;;6.15;2.00;;;;;;;;;;4843429;29;20050;-80
2024/02/08 00:30:01;;;;;;;5.68;1.60;;;;;;;;;;4842044;29;20072;-80
2024/02/08 00:32:34;;;;;;;6.63;1.80;;;;;;;;;;4843068;29;20516;-80
2024/02/08 00:35:05;;;;;;;3.60;1.48;;;;;;;;;;4842974;29;20058;-80
2024/02/08 00:37:39;;;;;;;6.00;2.45;;;;;;;;;;4843643;29;20058;-80
2024/02/08 00:40:10;;;;;;;5.30;1.85;;;;;;;;;;4840805;29;20361;-80
2024/02/08 00:45:55;;;;;;;6.40;2.08;;;;;;;;;;4842103;29;20054;-80
2024/02/08 00:48:26;;;;;;;6.88;1.95;;;;;;;;;;4842646;29;20054;-81
2024/02/08 00:50:59;;;;;;;4.90;1.60;;;;;;;;;;4856420;29;20054;-80
2024/02/08 00:53:31;;;;;;;5.53;1.52;;;;;;;;;;4840338;29;20492;-81
2024/02/08 00:56:01;;;;;;;8.25;2.00;;;;;;;;;;4823373;29;20074;-80
2024/02/08 00:58:32;;;;;;;8.65;1.75;;;;;;;;;;4843143;29;20512;-81
2024/02/08 01:01:03;;;;;;;9.05;2.35;;;;;;;;;;4824483;29;20053;-81
2024/02/08 01:03:33;;;;;;;4.53;1.33;;;;;;;;;;4835804;29;20061;-80
2024/02/08 01:06:05;;;;;;;4.10;1.85;;;;;;;;;;4828748;29;20046;-80
2024/02/08 01:08:37;;;;;;;6.03;1.90;;;;;;;;;;4841661;29;20045;-80
2024/02/08 01:11:08;;;;;;;6.57;1.83;;;;;;;;;;4841842;29;20060;-80
2024/02/08 01:13:39;;;;;;;3.95;1.33;;;;;;;;;;4839687;29;20057;-80
2024/02/08 01:16:11;;;;;;;4.78;1.73;;;;;;;;;;4841944;29;20052;-79
2024/02/08 01:18:42;;;;;;;2.90;1.42;;;;;;;;;;4842105;29;20097;-80
2024/02/08 01:21:13;;;;;;;5.60;1.60;;;;;;;;;;4841737;29;20061;-80
2024/02/08 01:23:46;;;;;;;7.03;2.78;;;;;;;;;;4825346;29;20413;-79
2024/02/08 01:26:16;;;;;;;5.40;1.42;;;;;;;;;;4842298;29;20405;-78
2024/02/08 01:28:47;;;;;;;3.40;1.55;;;;;;;;;;4826252;29;20057;-81
2024/02/08 01:31:18;;;;;;;7.38;1.63;;;;;;;;;;4855818;29;20050;-81
2024/02/08 01:33:50;;;;;;;2.75;1.42;;;;;;;;;;4824921;29;20054;-80
2024/02/08 01:36:23;;;;;;;5.80;1.60;;;;;;;;;;4841353;29;20061;-81
2024/02/08 01:38:54;;;;;;;5.20;1.50;;;;;;;;;;4842049;29;20053;-78
2024/02/08 01:41:24;;;;;;;5.68;1.65;;;;;;;;;;4842061;29;20061;-80
2024/02/08 01:44:04;;;;;;;4.45;1.33;;;;;;;;;;4841786;29;20049;-78
2024/02/08 01:46:40;;;;;;;4.50;1.15;;;;;;;;;;4839954;29;20057;-80
2024/02/08 01:49:20;;;;;;;2.97;1.40;;;;;;;;;;4842199;29;20050;-80
2024/02/08 01:52:10;;;;;;;3.50;1.38;;;;;;;;;;4841911;29;20057;-80
2024/02/08 01:54:43;;;;;;;7.75;1.70;;;;;;;;;;4841046;29;20050;-80
2024/02/08 01:57:14;;;;;;;4.95;1.25;;;;;;;;;;4841816;29;20054;-80
2024/02/08 01:59:52;;;;;;;3.40;1.33;;;;;;;;;;4840364;29;20060;-80
2024/02/08 02:02:27;;;;;;;5.32;1.75;;;;;;;;;;4840397;29;20054;-80
2024/02/08 02:04:58;;;;;;;4.35;1.17;;;;;;;;;;4840634;29;20070;-79
2024/02/08 02:07:30;;;;;;;3.38;1.50;;;;;;;;;;4842303;29;20378;-80
2024/02/08 02:10:00;;;;;;;2.78;1.30;;;;;;;;;;4843600;29;20050;-80
2024/02/08 02:12:32;;;;;;;6.30;1.45;;;;;;;;;;4842941;29;20054;-79
2024/02/08 02:15:04;;;;;;;5.72;1.23;;;;;;;;;;4845971;29;20501;-79
2024/02/08 02:18:39;;;;;;;2.95;1.20;;;;;;;;;;4842163;29;20046;-80
2024/02/08 02:21:34;;;;;;;2.75;1.05;;;;;;;;;;4809821;29;20151;-80
2024/02/08 02:24:11;;;;;;;3.90;1.42;;;;;;;;;;4810143;29;20101;-79
2024/02/08 02:26:43;;;;;;;5.32;1.42;;;;;;;;;;4810497;29;20059;-79
2024/02/08 02:29:21;;;;;;;4.45;1.20;;;;;;;;;;4810021;29;20063;-79
2024/02/08 02:31:52;;;;;;;5.70;1.88;;;;;;;;;;4808323;29;20059;-79
2024/02/08 02:34:30;;;;;;;2.50;1.23;;;;;;;;;;4809048;29;20050;-79
2024/02/08 02:37:26;;;;;;;2.90;1.08;;;;;;;;;;4806509;29;20160;-79
2024/02/08 02:40:25;;;;;;;4.05;1.13;;;;;;;;;;4824121;29;20051;-80
2024/02/08 02:42:56;;;;;;;2.50;1.65;;;;;;;;;;4828845;29;20083;-77
2024/02/08 02:45:30;;;;;;;3.03;1.27;;;;;;;;;;4841175;29;20069;-78
2024/02/08 02:48:01;;;;;;;5.13;1.40;;;;;;;;;;4842141;29;20058;-78
2024/02/08 02:50:38;;;;;;;8.48;1.60;;;;;;;;;;4843808;29;20065;-79
2024/02/08 02:53:12;;;;;;;7.13;1.52;;;;;;;;;;4861590;29;20058;-79
2024/02/08 02:55:43;;;;;;;5.38;1.10;;;;;;;;;;4862518;29;20062;-80
2024/02/08 02:58:14;;;;;;;7.18;2.03;;;;;;;;;;4848868;29;20058;-80
2024/02/08 03:00:44;;;;;;;4.18;1.80;;;;;;;;;;4844539;29;20223;-80
2024/02/08 03:03:15;;;;;;;9.05;1.85;;;;;;;;;;4845805;29;20531;-80
2024/02/08 03:05:46;;;;;;;7.28;1.48;;;;;;;;;;4861357;29;20061;-79
2024/02/08 03:08:16;;;;;;;3.17;1.45;;;;;;;;;;4861099;29;20069;-78
2024/02/08 03:10:47;;;;;;;5.30;1.50;;;;;;;;;;4860851;29;20058;-79
2024/02/08 03:13:18;;;;;;;7.07;1.33;;;;;;;;;;4845568;29;20056;-79
2024/02/08 03:15:49;;;;;;;5.07;1.30;;;;;;;;;;4860207;29;20054;-79
2024/02/08 03:18:23;;;;;;;7.60;1.30;;;;;;;;;;4831566;29;20062;-80
2024/02/08 03:20:53;;;;;;;5.50;1.10;;;;;;;;;;4843988;29;20045;-79
2024/02/08 03:23:24;;;;;;;6.75;2.10;;;;;;;;;;4843883;29;20054;-79
2024/02/08 03:25:56;;;;;;;6.90;1.20;;;;;;;;;;4827229;29;20511;-79
2024/02/08 03:28:28;;;;;;;4.68;1.08;;;;;;;;;;4843503;29;20065;-79
2024/02/08 03:31:03;;;;;;;5.88;1.35;;;;;;;;;;4844025;29;20053;-78
2024/02/08 03:33:34;;;;;;;6.55;1.30;;;;;;;;;;4843945;29;20500;-79
2024/02/08 03:36:08;;;;;;;3.33;1.35;;;;;;;;;;4843637;29;20393;-79
2024/02/08 03:38:40;;;;;;;3.05;1.17;;;;;;;;;;4843952;29;20065;-79
2024/02/08 03:41:10;;;;;;;6.13;1.10;;;;;;;;;;4844001;29;20399;-79
2024/02/08 03:43:40;;;;;;;9.63;1.50;;;;;;;;;;4844224;29;20046;-80
2024/02/08 03:46:10;;;;;;;4.40;0.90;;;;;;;;;;4843754;29;20057;-79
2024/02/08 03:48:45;;;;;;;4.30;1.33;;;;;;;;;;4843493;29;20145;-80
2024/02/08 03:51:17;;;;;;;4.38;1.17;;;;;;;;;;4843468;29;20069;-80
2024/02/08 03:53:47;;;;;;;3.05;1.20;;;;;;;;;;4827588;29;20054;-79
2024/02/08 03:56:26;;;;;;;5.68;1.95;;;;;;;;;;4843431;29;20054;-78
2024/02/08 03:58:59;;;;;;;5.93;1.40;;;;;;;;;;4843475;29;20045;-78
2024/02/08 04:01:30;;;;;;;3.17;1.30;;;;;;;;;;4843349;29;20409;-79
2024/02/08 04:04:12;;;;;;;3.83;1.23;;;;;;;;;;4843520;29;20066;-79
2024/02/08 04:07:00;;;;;;;3.95;1.13;;;;;;;;;;4843147;29;20137;-79
2024/02/08 04:09:36;;;;;;;5.88;1.38;;;;;;;;;;4826563;29;20049;-79
2024/02/08 04:54:34;;;;;;;3.03;1.55;;;;;;;;;;4842501;29;20069;-80
2024/02/08 04:57:07;;;;;;;3.85;0.98;;;;;;;;;;4842149;29;20053;-80
2024/02/08 04:59:44;;;;;;;4.43;1.35;;;;;;;;;;4855435;29;20057;-80
2024/02/08 05:02:16;;;;;;;5.32;1.70;;;;;;;;;;4856132;29;20065;-80
2024/02/08 05:04:49;;;;;;;5.70;1.88;;;;;;;;;;4841928;29;20053;-81
2024/02/08 05:07:19;;;;;;;4.28;1.50;;;;;;;;;;4842336;29;20046;-80
2024/02/08 05:09:50;;;;;;;3.72;1.92;;;;;;;;;;4842184;29;20453;-81
2024/02/08 05:12:21;;;;;;;4.20;1.83;;;;;;;;;;4842134;29;20069;-80
2024/02/08 05:14:51;;;;;;;9.20;1.90;;;;;;;;;;4842109;29;20045;-80
2024/02/08 05:17:22;;;;;;;5.88;1.90;;;;;;;;;;4825888;29;20087;-79
2024/02/08 05:19:52;;;;;;;7.63;2.03;;;;;;;;;;4825626;29;20057;-79
2024/02/08 05:22:22;;;;;;;4.75;2.00;;;;;;;;;;4841880;29;20058;-79
2024/02/08 05:24:54;;;;;;;4.65;1.92;;;;;;;;;;4841966;29;20049;-79
2024/02/08 05:27:25;;;;;;;4.35;1.90;;;;;;;;;;4842134;29;20432;-79
2024/02/08 05:29:55;;;;;;;4.22;1.65;;;;;;;;;;4842079;29;20042;-79
2024/02/08 05:32:27;;;;;;;5.10;2.20;;;;;;;;;;4842147;29;20042;-79
2024/02/08 05:34:58;;;;;;;6.38;1.95;;;;;;;;;;4841949;29;20416;-79
2024/02/08 05:37:29;;;;;;;6.85;2.40;;;;;;;;;;4841913;29;20069;-80
2024/02/08 05:40:00;;;;;;;7.60;2.42;;;;;;;;;;4842006;29;20065;-79
2024/02/08 05:42:33;;;;;;;5.00;1.83;;;;;;;;;;4825690;29;20061;-80
2024/02/08 05:45:19;;;;;;;3.70;2.20;;;;;;;;;;4841658;29;20053;-79
2024/02/08 05:47:49;;;;;;;12.80;2.03;;;;;;;;;;4825731;29;20058;-79
2024/02/08 05:50:23;;;;;;;5.13;1.90;;;;;;;;;;4841851;29;20050;-80
2024/02/08 05:52:57;;;;;;;4.32;1.48;;;;;;;;;;4842024;29;20050;-80
2024/02/08 05:55:27;;;;;;;6.75;2.00;;;;;;;;;;4825314;29;20058;-79
2024/02/08 05:57:58;;;;;;;4.50;2.05;;;;;;;;;;4841886;29;20505;-78
2024/02/08 06:00:32;;;;;;;4.47;1.50;;;;;;;;;;4841828;29;20508;-79
2024/02/08 06:03:05;;;;;;;4.82;1.92;;;;;;;;;;4842155;29;20057;-80
2024/02/08 06:05:36;;;;;;;3.63;1.67;;;;;;;;;;4841760;29;20056;-79
2024/02/08 06:08:25;;;;;;;3.45;1.50;;;;;;;;;;4841746;29;20057;-79
2024/02/08 06:10:56;;;;;;;4.97;1.52;;;;;;;;;;4825522;29;20063;-79
2024/02/08 06:13:26;;;;;;;4.80;1.70;;;;;;;;;;4842070;29;20508;-79
2024/02/08 06:16:08;;;;;;;3.58;1.52;;;;;;;;;;4825929;29;20054;-79
2024/02/08 06:18:40;;;;;;;4.53;1.73;;;;;;;;;;4825106;29;20059;-79
2024/02/08 06:21:18;;;;;;;3.45;1.70;;;;;;;;;;4824864;29;20058;-79
2024/02/08 06:23:50;;;;;;;4.53;1.83;;;;;;;;;;4842114;29;20077;-80
2024/02/08 06:26:27;;;;;;;4.82;1.90;;;;;;;;;;4841556;29;20054;-79
2024/02/08 06:29:05;;;;;;;3.90;1.83;;;;;;;;;;4841591;29;20049;-80
2024/02/08 06:31:40;;;;;;;5.00;1.55;;;;;;;;;;4841357;29;20050;-79
2024/02/08 06:37:15;;;;;;;3.97;1.73;;;;;;;;;;4824862;29;20070;-79
2024/02/08 06:39:55;;;;;;;3.75;1.67;;;;;;;;;;4825167;29;20053;-79
2024/02/08 06:42:47;;;;;;;4.53;1.80;;;;;;;;;;4841604;29;20049;-79
2024/02/08 07:41:23;;;;;;;5.80;2.85;;;;;;;;;;4825061;29;20050;-79
2024/02/08 07:43:56;;;;;;;6.28;2.20;;;;;;;;;;4825291;29;20058;-79
2024/02/08 07:46:29;;;;;;;4.80;2.35;;;;;;;;;;4809500;29;20054;-79
2024/02/08 07:49:04;;;;;;;5.20;2.25;;;;;;;;;;4825110;29;20078;-79
2024/02/08 07:51:43;;;;;;;5.93;2.50;;;;;;;;;;4825321;29;20049;-79
2024/02/08 07:54:20;;;;;;;4.82;2.17;;;;;;;;;;4808981;29;20050;-78
2024/02/08 07:56:53;;;;;;;4.25;2.25;;;;;;;;;;4825092;29;20047;-78
2024/02/08 07:59:26;;;;;;;5.57;2.10;;;;;;;;;;4808851;29;20066;-78
2024/02/08 08:01:58;;;;;;;3.53;1.98;;;;;;;;;;4809606;29;20042;-78
2024/02/08 08:07:23;;;;;;;3.25;2.08;;;;;;;;;;4816360;29;20626;-78
2024/02/08 08:10:07;;;;;;;6.22;2.25;;;;;;;;;;4825142;29;20506;-79
2024/02/08 08:12:38;;;;;;;4.50;2.30;;;;;;;;;;4808845;29;20541;-79
2024/02/08 08:17:59;;;;;;;4.28;1.98;;;;;;;;;;4824797;29;20046;-79
2024/02/08 08:20:56;;;;;;;5.65;2.33;;;;;;;;;;4824605;29;20062;-79
2024/02/08 08:23:31;;;;;;;4.32;1.75;;;;;;;;;;4824690;29;20387;-80
2024/02/08 08:29:02;;;;;;;5.57;2.38;;;;;;;;;;4824923;29;20050;-79
2024/02/08 08:31:37;;;;;;;3.72;1.98;;;;;;;;;;4824733;29;20055;-79
2024/02/08 08:36:58;;;;;;;3.63;2.17;;;;;;;;;;4824587;29;20087;-79
2024/02/08 08:39:53;;;;;;;4.35;2.15;;;;;;;;;;4825008;29;20494;-79
2024/02/08 08:42:24;;;;;;;3.55;2.05;;;;;;;;;;4824998;29;20051;-80
2024/02/08 08:44:59;;;;;;;6.13;2.53;;;;;;;;;;4824791;29;20509;-78
2024/02/08 08:47:30;;;;;;;5.75;2.75;;;;;;;;;;4808380;29;20517;-79
2024/02/08 08:50:17;;;;;;;4.20;2.05;;;;;;;;;;4824839;29;20494;-79
2024/02/08 08:52:49;;;;;;;5.90;2.17;;;;;;;;;;4808363;29;20386;-79
2024/02/08 08:55:20;;;;;;;4.05;1.83;;;;;;;;;;4808370;29;20046;-80
2024/02/08 08:58:01;;;;;;;7.43;2.10;;;;;;;;;;4824284;29;20046;-79
2024/02/08 09:00:36;;;;;;;8.57;2.60;;;;;;;;;;4824450;29;20054;-79
2024/02/08 09:03:10;;;;;;;8.05;2.65;;;;;;;;;;4809166;29;20053;-80
2024/02/08 09:05:46;;;;;;;4.00;2.30;;;;;;;;;;4822442;29;20054;-80
2024/02/08 09:08:21;;;;;;;10.18;3.13;;;;;;;;;;4822029;29;20047;-79
2024/02/08 09:10:56;;;;;;;7.35;2.25;;;;;;;;;;4822025;29;20038;-78
2024/02/08 09:13:27;;;;;;;6.13;2.33;;;;;;;;;;4822543;29;20398;-79
2024/02/08 09:16:29;;;;;;;5.30;2.42;;;;;;;;;;4822974;29;20053;-80
2024/02/08 09:21:36;;;;;;;11.27;2.78;;;;;;;;;;4805660;29;20530;-80
2024/02/08 09:24:17;;;;;;;8.95;3.08;;;;;;;;;;4822039;29;20058;-80
2024/02/08 09:26:48;;;;;;;6.25;2.33;;;;;;;;;;4823383;29;20042;-80
2024/02/08 09:29:25;;;;;;;8.00;2.28;;;;;;;;;;4823884;29;20046;-80
2024/02/08 09:32:14;;;;;;;9.25;2.35;;;;;;;;;;4824078;29;20042;-79
2024/02/08 09:34:47;;;;;;;;;;;;;;;;;;4834062;29;20057;-79
2024/02/08 09:37:18;;;;;;;10.20;2.30;;;;;;;;;;4841984;29;19925;-79
2024/02/08 09:39:58;;;;;;;7.38;2.47;;;;;;;;;;4841642;29;20056;-79
2024/02/08 09:42:37;;;;;;;9.18;2.55;;;;;;;;;;4841390;29;20034;-78
2024/02/08 09:48:15;;;;;;;6.07;2.08;;;;;;;;;;4845172;29;20509;-79
2024/02/08 09:50:53;;;;;;;8.07;2.05;;;;;;;;;;4841939;29;20050;-78
2024/02/08 09:53:31;;;;;;;3.38;1.60;;;;;;;;;;4842303;29;20046;-79
2024/02/08 09:56:15;;;;;;;8.15;2.75;;;;;;;;;;4841442;29;20046;-79
2024/02/08 09:58:55;;;;;;;5.53;2.17;;;;;;;;;;4841726;29;20058;-78
2024/02/08 10:01:43;;;;;;;6.43;2.30;;;;;;;;;;4839423;29;20050;-79
2024/02/08 10:04:19;;;;;;;6.88;2.42;;;;;;;;;;4841357;29;20512;-79
2024/02/08 10:06:58;;;;;;;7.60;1.85;;;;;;;;;;4840276;29;20603;-78
2024/02/08 10:09:40;;;;;;;3.90;1.85;;;;;;;;;;4824952;29;20050;-79
2024/02/08 10:12:18;;;;;;;5.07;2.22;;;;;;;;;;4837659;29;20421;-79
2024/02/08 10:14:59;;;;;;;5.60;2.50;;;;;;;;;;4841194;29;20417;-78
2024/02/08 10:17:51;;;;;;;10.10;2.33;;;;;;;;;;4842736;29;20058;-79
2024/02/08 10:20:45;;;;;;;5.20;1.98;;;;;;;;;;4821174;29;20062;-80
2024/02/08 10:23:35;;;;;;;5.80;1.55;;;;;;;;;;4822307;29;20046;-79
2024/02/08 10:26:20;;;;;;;6.28;1.80;;;;;;;;;;4822711;29;20054;-78
2024/02/08 10:28:56;;;;;;;6.90;1.92;;;;;;;;;;4822848;29;20055;-78
2024/02/08 10:31:28;;;;;;;5.85;1.80;;;;;;;;;;4822530;29;20061;-79
2024/02/08 10:34:23;;;;;;;5.05;1.70;;;;;;;;;;4822550;29;20047;-80
2024/02/08 10:37:00;;;;;;;10.98;2.83;;;;;;;;;;4808780;29;20085;-79
2024/02/08 10:39:32;;;;;;;9.48;2.80;;;;;;;;;;4808864;29;20063;-79
2024/02/08 10:42:03;;;;;;;9.27;3.30;;;;;;;;;;4843164;29;20045;-79
2024/02/08 10:44:34;;;;;;;8.80;2.35;;;;;;;;;;4827809;29;20046;-77
2024/02/08 10:47:07;;;;;;;6.53;2.00;;;;;;;;;;4839439;29;20053;-79
2024/02/08 10:49:47;;;;;;;5.80;1.80;;;;;;;;;;4860306;29;20050;-79
2024/02/08 10:52:20;;;;;;;7.20;1.92;;;;;;;;;;4843856;29;20528;-80
2024/02/08 10:54:52;;;;;;;10.05;2.15;;;;;;;;;;4845050;29;20057;-80
2024/02/08 10:58:01;;;;;;;7.85;2.13;;;;;;;;;;4844363;29;20448;-79
2024/02/08 11:06:25;;;;;;;9.50;2.00;;;;;;;;;;4827687;29;20058;-80
2024/02/08 11:09:18;;;;;;;7.68;1.88;;;;;;;;;;4843467;29;20477;-80
2024/02/08 11:12:03;;;;;;;6.82;2.30;;;;;;;;;;4841871;29;20509;-80
2024/02/08 11:14:42;;;;;;;9.32;2.30;;;;;;;;;;4841347;29;20056;-80
2024/02/08 11:17:23;;;;;;;5.47;1.63;;;;;;;;;;4841536;29;20051;-80
2024/02/08 11:19:58;;;;;;;6.25;1.88;;;;;;;;;;4842040;29;20050;-81
2024/02/08 11:22:39;;;;;;;7.95;1.50;;;;;;;;;;4841419;29;20412;-80
2024/02/08 11:25:20;;;;;;;8.48;1.40;;;;;;;;;;4842119;29;20056;-81
2024/02/08 11:27:52;;;;;;;4.85;1.25;;;;;;;;;;4843759;29;20490;-81
2024/02/08 11:30:35;;;;;;;2.67;1.02;;;;;;;;;;4827024;29;20061;-81
2024/02/08 11:33:12;;;;;;;6.40;1.42;;;;;;;;;;4809788;29;20057;-80
2024/02/08 11:35:54;;;;;;;10.13;1.92;;;;;;;;;;4835933;29;20050;-79
2024/02/08 11:38:30;;;;;;;4.10;1.38;;;;;;;;;;4843319;29;20064;-81
2024/02/08 11:41:11;;;;;;;3.42;1.20;;;;;;;;;;4841545;29;20042;-81
2024/02/08 11:43:51;;;;;;;11.52;2.28;;;;;;;;;;4837182;29;20462;-80
2024/02/08 11:46:22;;;;;;;;;;;;;;;;;;4825211;29;20050;-81
2024/02/08 11:49:09;;;;;;;3.95;1.10;;;;;;;;;;4842799;29;19925;-83
2024/02/08 11:51:41;;;;;;;2.97;1.15;;;;;;;;;;4843728;29;20369;-83
2024/02/08 11:54:22;;;;;;;;;;;;;;;;;;4842892;29;20394;-83
2024/02/08 11:57:03;;;;;;;3.15;0.90;;;;;;;;;;4826987;29;19932;-82
2024/02/08 11:59:39;;;;;;;;;;;;;;;;;;4843213;29;20061;-81
2024/02/08 12:02:10;;;;;;;2.17;1.20;;;;;;;;;;4842382;29;20297;-81
2024/02/08 12:04:41;;;;;;;3.60;1.20;;;;;;;;;;4842821;29;20058;-81
2024/02/08 12:07:15;;;;;;;2.70;1.10;;;;;;;;;;4840634;29;20046;-80
2024/02/08 12:09:45;;;;;;;4.10;0.95;;;;;;;;;;4856549;29;20140;-80
2024/02/08 12:12:18;;;;;;;2.33;1.10;;;;;;;;;;4842659;29;20042;-82
2024/02/08 12:14:52;;;;;;;1.42;0.95;;;;;;;;;;4842886;29;20049;-82
2024/02/08 12:17:22;;;;;;;2.35;1.08;;;;;;;;;;4841755;29;20386;-83
2024/02/08 12:20:00;;;;;;;2.58;0.93;;;;;;;;;;4841502;29;20058;-82
2024/02/08 12:22:31;;;;;;;3.25;1.00;;;;;;;;;;4842530;29;20519;-81
2024/02/08 12:25:07;;;;;;;3.67;1.13;;;;;;;;;;4842234;29;20109;-80
2024/02/08 12:27:40;;;;;;;3.83;1.33;;;;;;;;;;4837476;29;20038;-81
2024/02/08 12:30:11;;;;;;;1.58;0.90;;;;;;;;;;4829331;29;20432;-80
2024/02/08 12:32:43;;;;;;;;;;;;;;;;;;4842656;29;20038;-81
2024/02/08 12:35:14;;;;;;;3.22;1.40;;;;;;;;;;4835827;29;19931;-80
2024/02/08 12:37:46;;;;;;;6.38;1.40;;;;;;;;;;4846146;29;20070;-80
2024/02/08 12:40:17;;;;;;;;;;;;;;;;;;4841556;29;20058;-82
2024/02/08 12:42:47;;;;;;;1.60;0.90;;;;;;;;;;4827421;29;19924;-81
2024/02/08 12:45:18;;;;;;;4.15;1.20;;;;;;;;;;4843056;29;20046;-81
2024/02/08 12:47:51;;;;;;;3.35;1.20;;;;;;;;;;4843071;29;20050;-80
2024/02/08 12:50:22;;;;;;;4.28;1.23;;;;;;;;;;4842357;29;20050;-81
2024/02/08 12:52:57;;;;;;;1.88;0.93;;;;;;;;;;4826978;29;20049;-82
2024/02/08 12:55:31;;;;;;;2.53;1.20;;;;;;;;;;4839339;29;20050;-82
2024/02/08 12:58:03;;;;;;;2.40;1.00;;;;;;;;;;4838362;29;20504;-83
2024/02/08 13:00:34;;;;;;;3.42;1.35;;;;;;;;;;4843021;29;20512;-85
2024/02/08 13:03:08;;;;;;;3.55;1.55;;;;;;;;;;4824721;29;20069;-84
2024/02/08 13:05:41;;;;;;;2.08;1.10;;;;;;;;;;4841662;29;20050;-84
2024/02/08 13:08:21;;;;;;;3.58;1.15;;;;;;;;;;4842528;29;20414;-84
2024/02/08 13:10:58;;;;;;;2.45;1.17;;;;;;;;;;4825521;29;20054;-83
2024/02/08 13:13:29;;;;;;;4.53;1.20;;;;;;;;;;4826386;29;20053;-84
2024/02/08 13:16:09;;;;;;;9.82;1.15;;;;;;;;;;4842348;29;20057;-81
2024/02/08 13:18:54;;;;;;;4.15;1.10;;;;;;;;;;4837166;29;20042;-80
2024/02/08 13:21:24;;;;;;;4.30;1.30;;;;;;;;;;4840803;29;20050;-82
2024/02/08 13:23:55;;;;;;;5.18;1.40;;;;;;;;;;4838194;29;20060;-83
2024/02/08 13:26:26;;;;;;;5.10;1.48;;;;;;;;;;4835939;29;20054;-82
2024/02/08 13:29:04;;;;;;;2.63;1.33;;;;;;;;;;4842364;29;20057;-80
2024/02/08 13:31:38;;;;;;;2.03;1.20;;;;;;;;;;4841710;29;20050;-80
2024/02/08 13:34:09;;;;;;;2.97;1.60;;;;;;;;;;4841150;29;20493;-80
2024/02/08 13:36:43;;;;;;;5.88;1.48;;;;;;;;;;4843943;29;20061;-82
2024/02/08 13:39:13;;;;;;;4.13;1.45;;;;;;;;;;4839743;29;20053;-80
2024/02/08 13:41:46;;;;;;;4.50;1.65;;;;;;;;;;4823603;29;20046;-81
2024/02/08 13:44:16;;;;;;;2.30;1.33;;;;;;;;;;4839872;29;20046;-82
2024/02/08 13:46:49;;;;;;;2.90;1.50;;;;;;;;;;4824752;29;20061;-81
2024/02/08 13:49:24;;;;;;;2.35;1.27;;;;;;;;;;4838281;29;20103;-82
2024/02/08 13:51:55;;;;;;;2.42;1.45;;;;;;;;;;4836517;29;20054;-81
2024/02/08 13:54:27;;;;;;;5.47;1.73;;;;;;;;;;4827392;29;20053;-80
2024/02/08 13:56:59;;;;;;;3.85;1.48;;;;;;;;;;4840421;29;20049;-82
2024/02/08 13:59:55;;;;;;;6.07;1.63;;;;;;;;;;4826062;29;20058;-80
2024/02/08 14:02:42;;;;;;;;;;;;;;;;;;;;;
2024/02/08 14:05:25;;;;;;;3.28;1.60;;;;;;;;;;4790235;29;20558;-83
2024/02/08 14:08:17;;;;;;;3.47;1.38;;;;;;;;;;4777297;29;20074;-82
2024/02/08 14:10:49;;;;;;;4.85;1.83;;;;;;;;;;4776192;29;20055;-85
2024/02/08 14:13:28;;;;;;;7.97;1.80;;;;;;;;;;4799359;29;20055;-81
2024/02/08 14:16:25;;;;;;;3.53;1.63;;;;;;;;;;4778702;30;20056;-84
2024/02/08 14:18:59;;;;;;;5.15;1.65;;;;;;;;;;4773154;30;20055;-84
2024/02/08 14:21:58;;;;;;;6.60;1.52;;;;;;;;;;4772766;30;20431;-83
2024/02/08 14:24:35;;;;;;;4.82;1.75;;;;;;;;;;4769803;30;20059;-85
2024/02/08 14:27:06;;;;;;;5.03;1.60;;;;;;;;;;4770613;30;20060;-84
2024/02/08 14:29:37;;;;;;;5.05;1.83;;;;;;;;;;4784392;29;20573;-82
2024/02/08 14:32:13;;;;;;;5.97;1.77;;;;;;;;;;4773541;30;20059;-83
2024/02/08 14:34:58;;;;;;;4.82;1.65;;;;;;;;;;4786416;30;20059;-82
2024/02/08 14:37:28;;;;;;;4.18;1.85;;;;;;;;;;4787176;30;20059;-82
2024/02/08 14:39:58;;;;;;;3.20;1.83;;;;;;;;;;4787634;30;20059;-81
2024/02/08 14:42:30;;;;;;;3.15;1.52;;;;;;;;;;4799294;29;20406;-83
2024/02/08 14:45:00;;;;;;;5.40;1.67;;;;;;;;;;4826368;29;20634;-85
2024/02/08 14:47:31;;;;;;;9.77;1.70;;;;;;;;;;4824558;29;20055;-80
2024/02/08 14:50:15;;;;;;;3.72;1.70;;;;;;;;;;4826195;29;20054;-84
2024/02/08 14:52:49;;;;;;;5.05;1.73;;;;;;;;;;4825503;29;20094;-83
2024/02/08 14:55:25;;;;;;;3.88;1.90;;;;;;;;;;4844495;29;20497;-83
2024/02/08 14:57:58;;;;;;;3.33;1.85;;;;;;;;;;4827964;29;20505;-84
2024/02/08 15:03:08;;;;;;;3.97;1.90;;;;;;;;;;4843713;29;20427;-85
2024/02/08 15:05:46;;;;;;;5.68;1.80;;;;;;;;;;4844559;29;20054;-84
2024/02/08 15:11:08;;;;;;;6.00;1.92;;;;;;;;;;4845829;29;20046;-85
2024/02/08 15:13:49;;;;;;;10.82;1.88;;;;;;;;;;4828390;29;20045;-83
2024/02/08 15:16:30;;;;;;;7.22;1.70;;;;;;;;;;4827432;29;20532;-85
2024/02/08 15:19:01;;;;;;;8.95;1.85;;;;;;;;;;4825944;29;20054;-82
2024/02/08 15:21:35;;;;;;;8.25;2.03;;;;;;;;;;4825367;29;20058;-85
2024/02/08 15:26:44;;;;;;;3.50;1.45;;;;;;;;;;4825782;29;20129;-84
2024/02/08 15:32:17;;;;;;;3.25;1.45;;;;;;;;;;4821599;29;20073;-83
2024/02/08 15:34:58;;;;;;;4.70;1.88;;;;;;;;;;4825844;29;20050;-84
2024/02/08 15:37:31;;;;;;;7.35;1.70;;;;;;;;;;4824243;29;20065;-83
2024/02/08 15:40:16;;;;;;;5.85;2.22;;;;;;;;;;4824530;29;20054;-84
2024/02/08 15:42:48;;;;;;;4.68;1.95;;;;;;;;;;4839266;29;20050;-84
2024/02/08 15:45:21;;;;;;;6.88;1.92;;;;;;;;;;4814494;29;20069;-85
2024/02/08 15:48:10;;;;;;;5.13;2.25;;;;;;;;;;4807140;29;20046;-85
2024/02/08 15:50:45;;;;;;;3.60;1.90;;;;;;;;;;4807813;29;20050;-85
2024/02/08 15:53:19;;;;;;;3.20;2.15;;;;;;;;;;4808097;29;20058;-83
2024/02/08 15:55:50;;;;;;;3.75;2.03;;;;;;;;;;4807075;29;20054;-86
2024/02/08 15:58:25;;;;;;;3.58;1.90;;;;;;;;;;4805355;29;20066;-83
2024/02/08 16:03:59;;;;;;;3.47;1.70;;;;;;;;;;4821103;29;20058;-84
2024/02/08 16:09:25;;;;;;;4.88;1.80;;;;;;;;;;4823426;29;20061;-88
2024/02/08 16:15:07;;;;;;;3.15;1.90;;;;;;;;;;4787162;30;20159;-86
2024/02/08 16:17:39;;;;;;;4.65;1.90;;;;;;;;;;4833366;29;20077;-85
2024/02/08 16:23:13;;;;;;;4.57;2.22;;;;;;;;;;4842784;29;20050;-86
2024/02/08 16:25:44;;;;;;;4.05;1.95;;;;;;;;;;4842295;29;20457;-84
2024/02/08 16:28:22;;;;;;;7.68;2.00;;;;;;;;;;4842792;29;20046;-84
2024/02/08 16:36:44;;;;;;;4.68;1.75;;;;;;;;;;4842034;29;20058;-87
2024/02/08 16:41:48;;;;;;;3.95;1.88;;;;;;;;;;4842369;29;20121;-85
2024/02/08 16:44:29;;;;;;;3.47;2.08;;;;;;;;;;4841087;29;20061;-87
2024/02/08 16:47:05;;;;;;;2.92;1.88;;;;;;;;;;4842668;29;20412;-87
2024/02/08 16:49:44;;;;;;;2.95;1.77;;;;;;;;;;4840888;29;20054;-86
2024/02/08 16:52:22;;;;;;;3.78;1.80;;;;;;;;;;4842271;29;20050;-86
2024/02/08 16:54:58;;;;;;;8.13;2.00;;;;;;;;;;4840942;29;20054;-83
2024/02/08 16:57:31;;;;;;;4.95;1.83;;;;;;;;;;4842186;29;20046;-85
2024/02/08 17:03:05;;;;;;;3.80;1.92;;;;;;;;;;4823336;29;20062;-85
2024/02/08 17:05:53;;;;;;;3.63;1.55;;;;;;;;;;4832682;29;20050;-85
2024/02/08 17:08:40;;;;;;;4.18;1.95;;;;;;;;;;4841668;29;20409;-86
2024/02/08 17:11:15;;;;;;;2.53;1.65;;;;;;;;;;4825388;29;20049;-86
2024/02/08 17:13:58;;;;;;;3.65;1.65;;;;;;;;;;4840518;29;20382;-84
2024/02/08 17:19:29;;;;;;;4.10;1.65;;;;;;;;;;4841871;29;20050;-83
2024/02/08 17:30:16;;;;;;;3.90;1.92;;;;;;;;;;4841469;29;20050;-83
2024/02/08 17:32:46;;;;;;;4.65;1.92;;;;;;;;;;4840098;29;20050;-84
2024/02/08 17:35:17;;;;;;;2.47;1.70;;;;;;;;;;4840328;29;20061;-83
2024/02/08 17:37:48;;;;;;;6.50;1.77;;;;;;;;;;4841501;29;20439;-81
2024/02/08 17:40:19;;;;;;;2.30;1.50;;;;;;;;;;4841011;29;20061;-81
2024/02/08 17:42:58;;;;;;;3.20;1.65;;;;;;;;;;4841146;29;20056;-82
2024/02/08 17:45:47;;;;;;;2.58;1.63;;;;;;;;;;4841016;29;20054;-83
2024/02/08 17:48:20;;;;;;;3.92;1.70;;;;;;;;;;4839997;29;20045;-82
2024/02/08 17:50:58;;;;;;;3.50;1.55;;;;;;;;;;4841349;29;20061;-82
2024/02/08 17:53:31;;;;;;;4.85;1.52;;;;;;;;;;4839864;29;20057;-81
2024/02/08 17:56:08;;;;;;;2.05;1.17;;;;;;;;;;4840222;29;20049;-81
2024/02/08 17:58:39;;;;;;;3.80;1.30;;;;;;;;;;4840157;29;20057;-84
2024/02/08 18:01:15;;;;;;;3.83;1.23;;;;;;;;;;4840789;29;20429;-83
2024/02/08 18:03:46;;;;;;;1.95;1.23;;;;;;;;;;4841397;29;20057;-83
2024/02/08 18:06:18;;;;;;;4.20;1.17;;;;;;;;;;4842388;29;20050;-83
2024/02/08 18:08:50;;;;;;;4.82;1.50;;;;;;;;;;4842244;29;20053;-87
2024/02/08 18:11:21;;;;;;;3.20;1.10;;;;;;;;;;4842496;29;20058;-85
2024/02/08 18:13:51;;;;;;;2.75;1.00;;;;;;;;;;4840337;29;20058;-82
2024/02/08 18:16:23;;;;;;;2.55;1.30;;;;;;;;;;4841027;29;20050;-83
2024/02/08 18:18:58;;;;;;;2.63;1.42;;;;;;;;;;4841179;29;20057;-85
2024/02/08 18:21:33;;;;;;;4.38;1.45;;;;;;;;;;4841015;29;20049;-84
2024/02/08 18:24:05;;;;;;;4.75;1.30;;;;;;;;;;4841759;29;20058;-83
2024/02/08 18:26:37;;;;;;;2.38;1.40;;;;;;;;;;4842455;29;20057;-83
2024/02/08 18:29:07;;;;;;;7.38;1.40;;;;;;;;;;4842545;29;20050;-84